sensor_id;sensor_type;location;lat;lon;timestamp;P1;durP1;ratioP1;P2;durP2;ratioP2
11665;SDS011;5889;51.350;6.708;2022-07-29T00:00:51;3.47;;;1.30;;
11665;SDS011;5889;51.350;6.708;2022-07-29T00:03:18;5.00;;;1.42;;
11665;SDS011;5889;51.350;6.708;2022-07-29T00:05:46;4.43;;;1.52;;
11665;SDS011;5889;51.350;6.708;2022-07-29T00:08:13;5.07;;;1.70;;
11665;SDS011;5889;51.350;6.708;2022-07-29T00:10:41;3.95;;;1.92;;
11665;SDS011;5889;51.350;6.708;2022-07-29T00:13:08;5.32;;;1.60;;
11665;SDS011;5889;51.350;6.708;2022-07-29T00:15:35;3.92;;;1.67;;
11665;SDS011;5889;51.350;6.708;2022-07-29T00:18:02;4.55;;;1.60;;
11665;SDS011;5889;51.350;6.708;2022-07-29T00:20:29;4.28;;;1.52;;
11665;SDS011;5889;51.350;6.708;2022-07-29T00:22:57;3.83;;;1.35;;
11665;SDS011;5889;51.350;6.708;2022-07-29T00:25:24;6.95;;;1.65;;
11665;SDS011;5889;51.350;6.708;2022-07-29T00:27:51;4.13;;;1.50;;
11665;SDS011;5889;51.350;6.708;2022-07-29T00:30:18;3.53;;;1.52;;
11665;SDS011;5889;51.350;6.708;2022-07-29T00:32:45;3.15;;;1.40;;
11665;SDS011;5889;51.350;6.708;2022-07-29T00:35:11;4.47;;;1.33;;
11665;SDS011;5889;51.350;6.708;2022-07-29T00:37:57;3.70;;;1.35;;
11665;SDS011;5889;51.350;6.708;2022-07-29T00:40:24;2.20;;;1.20;;
11665;SDS011;5889;51.350;6.708;2022-07-29T00:42:51;2.65;;;1.40;;
11665;SDS011;5889;51.350;6.708;2022-07-29T00:45:18;5.55;;;1.90;;
11665;SDS011;5889;51.350;6.708;2022-07-29T00:47:46;3.88;;;1.27;;
11665;SDS011;5889;51.350;6.708;2022-07-29T00:50:14;6.60;;;1.70;;
11665;SDS011;5889;51.350;6.708;2022-07-29T00:52:41;5.32;;;1.90;;
11665;SDS011;5889;51.350;6.708;2022-07-29T00:55:11;8.93;;;1.90;;
11665;SDS011;5889;51.350;6.708;2022-07-29T00:57:39;3.47;;;1.35;;
11665;SDS011;5889;51.350;6.708;2022-07-29T01:00:07;4.03;;;1.35;;
11665;SDS011;5889;51.350;6.708;2022-07-29T01:02:36;3.78;;;1.58;;
11665;SDS011;5889;51.350;6.708;2022-07-29T01:05:04;6.35;;;1.48;;
11665;SDS011;5889;51.350;6.708;2022-07-29T01:07:32;5.10;;;1.70;;
11665;SDS011;5889;51.350;6.708;2022-07-29T01:10:01;2.80;;;1.70;;
11665;SDS011;5889;51.350;6.708;2022-07-29T01:12:30;6.82;;;1.70;;
11665;SDS011;5889;51.350;6.708;2022-07-29T01:15:00;5.22;;;1.77;;
11665;SDS011;5889;51.350;6.708;2022-07-29T01:17:28;6.45;;;1.67;;
11665;SDS011;5889;51.350;6.708;2022-07-29T01:20:01;4.18;;;1.73;;
11665;SDS011;5889;51.350;6.708;2022-07-29T01:22:38;6.88;;;2.15;;
11665;SDS011;5889;51.350;6.708;2022-07-29T01:25:31;3.85;;;1.80;;
11665;SDS011;5889;51.350;6.708;2022-07-29T01:31:04;5.22;;;1.70;;
11665;SDS011;5889;51.350;6.708;2022-07-29T01:33:33;6.18;;;2.17;;
11665;SDS011;5889;51.350;6.708;2022-07-29T01:36:17;4.57;;;2.00;;
11665;SDS011;5889;51.350;6.708;2022-07-29T01:38:50;5.65;;;1.70;;
11665;SDS011;5889;51.350;6.708;2022-07-29T01:41:23;4.07;;;1.83;;
11665;SDS011;5889;51.350;6.708;2022-07-29T01:43:57;8.77;;;2.03;;
11665;SDS011;5889;51.350;6.708;2022-07-29T01:46:29;6.68;;;1.80;;
11665;SDS011;5889;51.350;6.708;2022-07-29T01:49:00;5.38;;;1.50;;
11665;SDS011;5889;51.350;6.708;2022-07-29T01:51:32;8.30;;;1.65;;
11665;SDS011;5889;51.350;6.708;2022-07-29T01:54:06;6.25;;;1.83;;
11665;SDS011;5889;51.350;6.708;2022-07-29T01:56:38;4.82;;;1.95;;
11665;SDS011;5889;51.350;6.708;2022-07-29T01:59:08;5.88;;;1.90;;
11665;SDS011;5889;51.350;6.708;2022-07-29T02:01:36;6.07;;;1.73;;
11665;SDS011;5889;51.350;6.708;2022-07-29T02:04:06;6.47;;;1.77;;
11665;SDS011;5889;51.350;6.708;2022-07-29T02:06:37;6.65;;;1.50;;
11665;SDS011;5889;51.350;6.708;2022-07-29T02:09:06;6.20;;;1.75;;
11665;SDS011;5889;51.350;6.708;2022-07-29T02:11:36;6.70;;;1.67;;
11665;SDS011;5889;51.350;6.708;2022-07-29T02:14:04;4.88;;;1.67;;
11665;SDS011;5889;51.350;6.708;2022-07-29T02:16:34;3.78;;;1.30;;
11665;SDS011;5889;51.350;6.708;2022-07-29T02:19:04;4.63;;;2.03;;
11665;SDS011;5889;51.350;6.708;2022-07-29T02:21:33;7.85;;;1.73;;
11665;SDS011;5889;51.350;6.708;2022-07-29T02:24:02;3.25;;;1.80;;
11665;SDS011;5889;51.350;6.708;2022-07-29T02:26:30;5.30;;;1.63;;
11665;SDS011;5889;51.350;6.708;2022-07-29T02:28:59;7.97;;;2.13;;
11665;SDS011;5889;51.350;6.708;2022-07-29T02:31:30;4.97;;;1.90;;
11665;SDS011;5889;51.350;6.708;2022-07-29T02:34:01;4.53;;;1.60;;
11665;SDS011;5889;51.350;6.708;2022-07-29T02:36:29;6.05;;;2.05;;
11665;SDS011;5889;51.350;6.708;2022-07-29T02:38:57;4.93;;;1.92;;
11665;SDS011;5889;51.350;6.708;2022-07-29T02:41:27;6.40;;;1.77;;
11665;SDS011;5889;51.350;6.708;2022-07-29T02:43:56;7.57;;;2.20;;
11665;SDS011;5889;51.350;6.708;2022-07-29T02:46:29;6.03;;;1.67;;
11665;SDS011;5889;51.350;6.708;2022-07-29T02:49:02;5.23;;;1.60;;
11665;SDS011;5889;51.350;6.708;2022-07-29T02:51:40;4.93;;;1.60;;
11665;SDS011;5889;51.350;6.708;2022-07-29T02:54:09;4.90;;;1.73;;
11665;SDS011;5889;51.350;6.708;2022-07-29T02:56:40;3.30;;;1.60;;
11665;SDS011;5889;51.350;6.708;2022-07-29T02:59:10;2.77;;;1.47;;
11665;SDS011;5889;51.350;6.708;2022-07-29T03:01:40;6.57;;;2.10;;
11665;SDS011;5889;51.350;6.708;2022-07-29T03:04:11;6.40;;;1.60;;
11665;SDS011;5889;51.350;6.708;2022-07-29T03:06:40;3.13;;;1.20;;
11665;SDS011;5889;51.350;6.708;2022-07-29T03:09:10;3.27;;;1.77;;
11665;SDS011;5889;51.350;6.708;2022-07-29T03:11:37;3.33;;;1.30;;
11665;SDS011;5889;51.350;6.708;2022-07-29T03:14:05;5.33;;;1.80;;
11665;SDS011;5889;51.350;6.708;2022-07-29T03:16:33;6.20;;;1.53;;
11665;SDS011;5889;51.350;6.708;2022-07-29T03:19:02;4.30;;;1.30;;
11665;SDS011;5889;51.350;6.708;2022-07-29T03:21:31;4.43;;;1.50;;
11665;SDS011;5889;51.350;6.708;2022-07-29T03:23:58;3.87;;;1.20;;
11665;SDS011;5889;51.350;6.708;2022-07-29T03:26:25;4.03;;;1.50;;
11665;SDS011;5889;51.350;6.708;2022-07-29T03:28:52;4.60;;;1.40;;
11665;SDS011;5889;51.350;6.708;2022-07-29T03:31:19;2.93;;;1.10;;
11665;SDS011;5889;51.350;6.708;2022-07-29T03:33:46;4.80;;;1.17;;
11665;SDS011;5889;51.350;6.708;2022-07-29T03:36:13;5.30;;;1.60;;
11665;SDS011;5889;51.350;6.708;2022-07-29T03:38:41;3.60;;;1.20;;
11665;SDS011;5889;51.350;6.708;2022-07-29T03:41:10;6.27;;;1.63;;
11665;SDS011;5889;51.350;6.708;2022-07-29T03:43:39;4.63;;;1.40;;
11665;SDS011;5889;51.350;6.708;2022-07-29T03:46:08;4.10;;;1.40;;
11665;SDS011;5889;51.350;6.708;2022-07-29T03:48:37;4.20;;;1.20;;
11665;SDS011;5889;51.350;6.708;2022-07-29T03:51:08;5.93;;;1.40;;
11665;SDS011;5889;51.350;6.708;2022-07-29T03:53:35;10.37;;;1.80;;
11665;SDS011;5889;51.350;6.708;2022-07-29T03:56:04;7.47;;;1.60;;
11665;SDS011;5889;51.350;6.708;2022-07-29T03:58:35;5.27;;;2.03;;
11665;SDS011;5889;51.350;6.708;2022-07-29T04:01:03;5.33;;;1.80;;
11665;SDS011;5889;51.350;6.708;2022-07-29T04:03:30;6.10;;;2.10;;
11665;SDS011;5889;51.350;6.708;2022-07-29T04:05:57;4.70;;;2.10;;
11665;SDS011;5889;51.350;6.708;2022-07-29T04:08:25;4.17;;;1.87;;
11665;SDS011;5889;51.350;6.708;2022-07-29T04:10:52;3.80;;;2.10;;
11665;SDS011;5889;51.350;6.708;2022-07-29T04:13:21;10.60;;;3.93;;
11665;SDS011;5889;51.350;6.708;2022-07-29T04:15:48;18.43;;;5.73;;
11665;SDS011;5889;51.350;6.708;2022-07-29T04:18:15;20.13;;;6.87;;
11665;SDS011;5889;51.350;6.708;2022-07-29T04:20:42;17.07;;;6.87;;
11665;SDS011;5889;51.350;6.708;2022-07-29T04:23:08;18.33;;;6.97;;
11665;SDS011;5889;51.350;6.708;2022-07-29T04:25:36;9.37;;;4.17;;
11665;SDS011;5889;51.350;6.708;2022-07-29T04:28:04;9.33;;;3.70;;
11665;SDS011;5889;51.350;6.708;2022-07-29T04:30:33;11.90;;;4.43;;
11665;SDS011;5889;51.350;6.708;2022-07-29T04:33:03;4.60;;;2.77;;
11665;SDS011;5889;51.350;6.708;2022-07-29T04:35:33;8.63;;;2.70;;
11665;SDS011;5889;51.350;6.708;2022-07-29T04:38:01;4.93;;;2.50;;
11665;SDS011;5889;51.350;6.708;2022-07-29T04:40:29;6.33;;;2.67;;
11665;SDS011;5889;51.350;6.708;2022-07-29T04:42:58;5.87;;;2.33;;
11665;SDS011;5889;51.350;6.708;2022-07-29T04:45:25;5.83;;;2.77;;
11665;SDS011;5889;51.350;6.708;2022-07-29T04:47:53;8.53;;;3.03;;
11665;SDS011;5889;51.350;6.708;2022-07-29T04:50:20;5.40;;;3.20;;
11665;SDS011;5889;51.350;6.708;2022-07-29T04:52:48;8.27;;;3.40;;
11665;SDS011;5889;51.350;6.708;2022-07-29T04:55:15;15.53;;;3.40;;
11665;SDS011;5889;51.350;6.708;2022-07-29T04:57:41;8.07;;;3.37;;
11665;SDS011;5889;51.350;6.708;2022-07-29T05:00:09;9.63;;;3.10;;
11665;SDS011;5889;51.350;6.708;2022-07-29T05:02:36;8.20;;;3.03;;
11665;SDS011;5889;51.350;6.708;2022-07-29T05:05:06;6.97;;;2.70;;
11665;SDS011;5889;51.350;6.708;2022-07-29T05:07:33;4.40;;;2.90;;
11665;SDS011;5889;51.350;6.708;2022-07-29T05:10:00;6.87;;;2.73;;
11665;SDS011;5889;51.350;6.708;2022-07-29T05:12:27;8.90;;;3.13;;
11665;SDS011;5889;51.350;6.708;2022-07-29T05:14:54;6.57;;;3.37;;
11665;SDS011;5889;51.350;6.708;2022-07-29T05:17:21;5.40;;;2.80;;
11665;SDS011;5889;51.350;6.708;2022-07-29T05:19:48;4.93;;;2.50;;
11665;SDS011;5889;51.350;6.708;2022-07-29T05:22:17;6.80;;;2.83;;
11665;SDS011;5889;51.350;6.708;2022-07-29T05:24:44;6.27;;;2.63;;
11665;SDS011;5889;51.350;6.708;2022-07-29T05:27:12;5.73;;;2.87;;
11665;SDS011;5889;51.350;6.708;2022-07-29T05:29:39;6.43;;;2.77;;
11665;SDS011;5889;51.350;6.708;2022-07-29T05:32:06;6.23;;;2.97;;
11665;SDS011;5889;51.350;6.708;2022-07-29T05:34:33;6.93;;;3.00;;
11665;SDS011;5889;51.350;6.708;2022-07-29T05:37:00;7.53;;;3.27;;
11665;SDS011;5889;51.350;6.708;2022-07-29T05:39:28;7.53;;;3.00;;
11665;SDS011;5889;51.350;6.708;2022-07-29T05:41:55;4.87;;;2.63;;
11665;SDS011;5889;51.350;6.708;2022-07-29T05:44:22;7.33;;;2.90;;
11665;SDS011;5889;51.350;6.708;2022-07-29T05:46:49;7.03;;;3.10;;
11665;SDS011;5889;51.350;6.708;2022-07-29T05:49:16;5.40;;;2.77;;
11665;SDS011;5889;51.350;6.708;2022-07-29T05:51:43;6.97;;;2.97;;
11665;SDS011;5889;51.350;6.708;2022-07-29T05:54:11;7.30;;;2.43;;
11665;SDS011;5889;51.350;6.708;2022-07-29T05:56:39;7.10;;;2.90;;
11665;SDS011;5889;51.350;6.708;2022-07-29T05:59:06;10.30;;;3.10;;
11665;SDS011;5889;51.350;6.708;2022-07-29T06:01:33;9.60;;;3.43;;
11665;SDS011;5889;51.350;6.708;2022-07-29T06:04:04;5.53;;;2.90;;
11665;SDS011;5889;51.350;6.708;2022-07-29T06:06:31;5.60;;;2.87;;
11665;SDS011;5889;51.350;6.708;2022-07-29T06:08:58;5.03;;;3.00;;
11665;SDS011;5889;51.350;6.708;2022-07-29T06:11:25;4.97;;;3.03;;
11665;SDS011;5889;51.350;6.708;2022-07-29T06:13:54;6.33;;;2.80;;
11665;SDS011;5889;51.350;6.708;2022-07-29T06:16:21;3.47;;;2.50;;
11665;SDS011;5889;51.350;6.708;2022-07-29T06:18:48;4.53;;;2.70;;
11665;SDS011;5889;51.350;6.708;2022-07-29T06:21:15;4.37;;;2.23;;
11665;SDS011;5889;51.350;6.708;2022-07-29T06:23:42;5.73;;;2.73;;
11665;SDS011;5889;51.350;6.708;2022-07-29T06:26:10;4.83;;;2.33;;
11665;SDS011;5889;51.350;6.708;2022-07-29T06:28:37;4.57;;;2.43;;
11665;SDS011;5889;51.350;6.708;2022-07-29T06:31:06;6.00;;;2.63;;
11665;SDS011;5889;51.350;6.708;2022-07-29T06:33:33;4.97;;;2.70;;
11665;SDS011;5889;51.350;6.708;2022-07-29T06:36:00;4.00;;;2.47;;
11665;SDS011;5889;51.350;6.708;2022-07-29T06:38:29;6.20;;;2.93;;
11665;SDS011;5889;51.350;6.708;2022-07-29T06:40:56;8.73;;;2.83;;
11665;SDS011;5889;51.350;6.708;2022-07-29T06:43:26;6.03;;;2.47;;
11665;SDS011;5889;51.350;6.708;2022-07-29T06:45:54;8.43;;;3.00;;
11665;SDS011;5889;51.350;6.708;2022-07-29T06:48:22;11.17;;;3.40;;
11665;SDS011;5889;51.350;6.708;2022-07-29T06:50:49;3.53;;;2.70;;
11665;SDS011;5889;51.350;6.708;2022-07-29T06:53:16;7.60;;;2.70;;
11665;SDS011;5889;51.350;6.708;2022-07-29T06:55:43;6.80;;;3.00;;
11665;SDS011;5889;51.350;6.708;2022-07-29T06:58:10;4.47;;;2.87;;
11665;SDS011;5889;51.350;6.708;2022-07-29T07:00:39;8.13;;;3.10;;
11665;SDS011;5889;51.350;6.708;2022-07-29T07:03:06;5.13;;;2.77;;
11665;SDS011;5889;51.350;6.708;2022-07-29T07:05:34;4.40;;;2.73;;
11665;SDS011;5889;51.350;6.708;2022-07-29T07:08:01;8.73;;;2.50;;
11665;SDS011;5889;51.350;6.708;2022-07-29T07:10:28;7.33;;;2.97;;
11665;SDS011;5889;51.350;6.708;2022-07-29T07:12:55;6.70;;;2.80;;
11665;SDS011;5889;51.350;6.708;2022-07-29T07:15:22;11.50;;;2.93;;
11665;SDS011;5889;51.350;6.708;2022-07-29T07:17:49;11.30;;;3.10;;
11665;SDS011;5889;51.350;6.708;2022-07-29T07:20:17;3.90;;;2.60;;
11665;SDS011;5889;51.350;6.708;2022-07-29T07:22:45;6.03;;;2.93;;
11665;SDS011;5889;51.350;6.708;2022-07-29T07:25:13;7.87;;;3.23;;
11665;SDS011;5889;51.350;6.708;2022-07-29T07:27:42;14.07;;;4.00;;
11665;SDS011;5889;51.350;6.708;2022-07-29T07:30:10;13.63;;;3.70;;
11665;SDS011;5889;51.350;6.708;2022-07-29T07:32:37;10.07;;;3.90;;
11665;SDS011;5889;51.350;6.708;2022-07-29T07:35:05;5.77;;;3.07;;
11665;SDS011;5889;51.350;6.708;2022-07-29T07:37:34;9.60;;;3.97;;
11665;SDS011;5889;51.350;6.708;2022-07-29T07:40:04;10.70;;;3.90;;
11665;SDS011;5889;51.350;6.708;2022-07-29T07:42:31;12.50;;;4.10;;
11665;SDS011;5889;51.350;6.708;2022-07-29T07:44:58;7.10;;;4.20;;
11665;SDS011;5889;51.350;6.708;2022-07-29T07:47:25;9.20;;;4.20;;
11665;SDS011;5889;51.350;6.708;2022-07-29T07:49:52;7.10;;;4.00;;
11665;SDS011;5889;51.350;6.708;2022-07-29T07:52:20;16.10;;;5.33;;
11665;SDS011;5889;51.350;6.708;2022-07-29T07:54:47;10.33;;;5.00;;
11665;SDS011;5889;51.350;6.708;2022-07-29T07:57:16;11.53;;;5.07;;
11665;SDS011;5889;51.350;6.708;2022-07-29T07:59:43;7.97;;;4.63;;
11665;SDS011;5889;51.350;6.708;2022-07-29T08:02:10;12.73;;;5.43;;
11665;SDS011;5889;51.350;6.708;2022-07-29T08:04:37;13.33;;;4.83;;
11665;SDS011;5889;51.350;6.708;2022-07-29T08:07:05;12.80;;;4.83;;
11665;SDS011;5889;51.350;6.708;2022-07-29T08:09:33;8.00;;;4.20;;
11665;SDS011;5889;51.350;6.708;2022-07-29T08:12:01;15.03;;;5.00;;
11665;SDS011;5889;51.350;6.708;2022-07-29T08:14:32;9.93;;;4.60;;
11665;SDS011;5889;51.350;6.708;2022-07-29T08:16:59;8.50;;;3.97;;
11665;SDS011;5889;51.350;6.708;2022-07-29T08:19:26;7.37;;;3.93;;
11665;SDS011;5889;51.350;6.708;2022-07-29T08:21:53;11.97;;;4.93;;
11665;SDS011;5889;51.350;6.708;2022-07-29T08:24:20;8.17;;;4.10;;
11665;SDS011;5889;51.350;6.708;2022-07-29T08:27:02;7.57;;;4.27;;
11665;SDS011;5889;51.350;6.708;2022-07-29T08:29:29;7.30;;;3.93;;
11665;SDS011;5889;51.350;6.708;2022-07-29T08:31:57;10.37;;;3.90;;
11665;SDS011;5889;51.350;6.708;2022-07-29T08:34:24;11.07;;;4.30;;
11665;SDS011;5889;51.350;6.708;2022-07-29T08:36:51;6.83;;;3.53;;
11665;SDS011;5889;51.350;6.708;2022-07-29T08:39:18;8.83;;;3.70;;
11665;SDS011;5889;51.350;6.708;2022-07-29T08:41:45;8.50;;;4.10;;
11665;SDS011;5889;51.350;6.708;2022-07-29T08:44:12;8.80;;;3.60;;
11665;SDS011;5889;51.350;6.708;2022-07-29T08:46:41;6.00;;;3.40;;
11665;SDS011;5889;51.350;6.708;2022-07-29T08:49:10;8.07;;;3.87;;
11665;SDS011;5889;51.350;6.708;2022-07-29T08:51:38;10.50;;;4.77;;
11665;SDS011;5889;51.350;6.708;2022-07-29T08:54:06;9.30;;;3.90;;
11665;SDS011;5889;51.350;6.708;2022-07-29T08:56:35;9.53;;;3.83;;
11665;SDS011;5889;51.350;6.708;2022-07-29T08:59:03;9.47;;;3.77;;
11665;SDS011;5889;51.350;6.708;2022-07-29T09:01:32;10.20;;;4.10;;
11665;SDS011;5889;51.350;6.708;2022-07-29T09:04:00;6.77;;;3.73;;
11665;SDS011;5889;51.350;6.708;2022-07-29T09:06:31;13.93;;;4.20;;
11665;SDS011;5889;51.350;6.708;2022-07-29T09:09:00;9.67;;;4.13;;
11665;SDS011;5889;51.350;6.708;2022-07-29T09:11:29;9.43;;;3.80;;
11665;SDS011;5889;51.350;6.708;2022-07-29T09:13:58;9.17;;;4.43;;
11665;SDS011;5889;51.350;6.708;2022-07-29T09:16:25;8.83;;;3.90;;
11665;SDS011;5889;51.350;6.708;2022-07-29T09:18:52;8.47;;;3.77;;
11665;SDS011;5889;51.350;6.708;2022-07-29T09:21:19;14.60;;;4.10;;
11665;SDS011;5889;51.350;6.708;2022-07-29T09:24:08;7.60;;;4.20;;
11665;SDS011;5889;51.350;6.708;2022-07-29T09:26:36;8.93;;;3.90;;
11665;SDS011;5889;51.350;6.708;2022-07-29T09:29:07;6.60;;;4.40;;
11665;SDS011;5889;51.350;6.708;2022-07-29T09:31:36;7.18;;;4.25;;
11665;SDS011;5889;51.350;6.708;2022-07-29T09:34:04;7.60;;;4.40;;
11665;SDS011;5889;51.350;6.708;2022-07-29T09:36:38;5.60;;;4.10;;
11665;SDS011;5889;51.350;6.708;2022-07-29T09:39:07;6.72;;;4.10;;
11665;SDS011;5889;51.350;6.708;2022-07-29T09:41:44;11.27;;;5.30;;
11665;SDS011;5889;51.350;6.708;2022-07-29T09:44:12;9.00;;;4.57;;
11665;SDS011;5889;51.350;6.708;2022-07-29T09:46:40;11.67;;;5.23;;
11665;SDS011;5889;51.350;6.708;2022-07-29T09:49:18;9.30;;;4.57;;
11665;SDS011;5889;51.350;6.708;2022-07-29T09:51:45;11.75;;;5.13;;
11665;SDS011;5889;51.350;6.708;2022-07-29T09:54:23;8.63;;;4.55;;
11665;SDS011;5889;51.350;6.708;2022-07-29T09:56:50;10.13;;;4.75;;
11665;SDS011;5889;51.350;6.708;2022-07-29T09:59:18;12.95;;;4.93;;
11665;SDS011;5889;51.350;6.708;2022-07-29T10:01:49;8.52;;;4.38;;
11665;SDS011;5889;51.350;6.708;2022-07-29T10:04:16;9.75;;;4.30;;
11665;SDS011;5889;51.350;6.708;2022-07-29T10:06:54;11.48;;;4.60;;
11665;SDS011;5889;51.350;6.708;2022-07-29T10:09:23;9.93;;;4.00;;
11665;SDS011;5889;51.350;6.708;2022-07-29T10:12:04;13.80;;;6.90;;
11665;SDS011;5889;51.350;6.708;2022-07-29T10:14:32;9.45;;;4.20;;
11665;SDS011;5889;51.350;6.708;2022-07-29T10:17:00;13.48;;;6.20;;
11665;SDS011;5889;51.350;6.708;2022-07-29T10:19:28;15.23;;;6.82;;
11665;SDS011;5889;51.350;6.708;2022-07-29T10:21:56;11.52;;;4.88;;
11665;SDS011;5889;51.350;6.708;2022-07-29T10:24:25;11.88;;;4.97;;
11665;SDS011;5889;51.350;6.708;2022-07-29T10:26:54;10.43;;;4.57;;
11665;SDS011;5889;51.350;6.708;2022-07-29T10:29:22;10.93;;;5.10;;
11665;SDS011;5889;51.350;6.708;2022-07-29T10:31:49;11.70;;;5.13;;
11665;SDS011;5889;51.350;6.708;2022-07-29T10:34:36;9.90;;;4.65;;
11665;SDS011;5889;51.350;6.708;2022-07-29T10:37:18;10.98;;;5.18;;
11665;SDS011;5889;51.350;6.708;2022-07-29T10:39:55;14.52;;;6.13;;
11665;SDS011;5889;51.350;6.708;2022-07-29T10:42:50;16.95;;;8.73;;
11665;SDS011;5889;51.350;6.708;2022-07-29T10:45:19;17.50;;;8.82;;
11665;SDS011;5889;51.350;6.708;2022-07-29T10:47:47;18.85;;;7.47;;
11665;SDS011;5889;51.350;6.708;2022-07-29T10:50:14;15.25;;;8.40;;
11665;SDS011;5889;51.350;6.708;2022-07-29T10:52:53;12.30;;;6.72;;
11665;SDS011;5889;51.350;6.708;2022-07-29T10:55:31;11.77;;;6.45;;
11665;SDS011;5889;51.350;6.708;2022-07-29T10:58:11;15.70;;;8.75;;
11665;SDS011;5889;51.350;6.708;2022-07-29T11:00:39;12.15;;;4.57;;
11665;SDS011;5889;51.350;6.708;2022-07-29T11:03:06;7.72;;;3.80;;
11665;SDS011;5889;51.350;6.708;2022-07-29T11:05:54;10.82;;;4.65;;
11665;SDS011;5889;51.350;6.708;2022-07-29T11:08:23;13.25;;;5.88;;
11665;SDS011;5889;51.350;6.708;2022-07-29T11:14:07;12.52;;;4.38;;
11665;SDS011;5889;51.350;6.708;2022-07-29T11:19:28;8.73;;;4.78;;
11665;SDS011;5889;51.350;6.708;2022-07-29T11:21:55;8.95;;;4.85;;
11665;SDS011;5889;51.350;6.708;2022-07-29T11:24:22;9.07;;;4.70;;
11665;SDS011;5889;51.350;6.708;2022-07-29T11:27:11;11.35;;;4.80;;
11665;SDS011;5889;51.350;6.708;2022-07-29T11:29:48;15.65;;;6.18;;
11665;SDS011;5889;51.350;6.708;2022-07-29T11:32:20;11.55;;;5.72;;
11665;SDS011;5889;51.350;6.708;2022-07-29T11:34:49;13.65;;;5.25;;
11665;SDS011;5889;51.350;6.708;2022-07-29T11:37:40;11.55;;;5.03;;
11665;SDS011;5889;51.350;6.708;2022-07-29T11:40:11;10.07;;;4.85;;
11665;SDS011;5889;51.350;6.708;2022-07-29T11:42:47;9.35;;;5.32;;
11665;SDS011;5889;51.350;6.708;2022-07-29T11:48:16;12.20;;;4.38;;
11665;SDS011;5889;51.350;6.708;2022-07-29T11:50:44;10.60;;;4.72;;
11665;SDS011;5889;51.350;6.708;2022-07-29T11:53:11;8.90;;;4.45;;
11665;SDS011;5889;51.350;6.708;2022-07-29T11:55:40;7.32;;;4.35;;
11665;SDS011;5889;51.350;6.708;2022-07-29T11:58:07;5.75;;;3.70;;
11665;SDS011;5889;51.350;6.708;2022-07-29T12:00:35;11.55;;;3.53;;
11665;SDS011;5889;51.350;6.708;2022-07-29T12:03:06;9.15;;;4.03;;
11665;SDS011;5889;51.350;6.708;2022-07-29T12:05:35;8.02;;;4.13;;
11665;SDS011;5889;51.350;6.708;2022-07-29T12:08:08;9.25;;;3.70;;
11665;SDS011;5889;51.350;6.708;2022-07-29T12:10:37;8.70;;;4.95;;
11665;SDS011;5889;51.350;6.708;2022-07-29T12:13:05;8.02;;;4.22;;
11665;SDS011;5889;51.350;6.708;2022-07-29T12:15:33;13.32;;;4.10;;
11665;SDS011;5889;51.350;6.708;2022-07-29T12:18:10;9.57;;;4.40;;
11665;SDS011;5889;51.350;6.708;2022-07-29T12:20:38;6.95;;;3.65;;
11665;SDS011;5889;51.350;6.708;2022-07-29T12:23:06;6.53;;;4.05;;
11665;SDS011;5889;51.350;6.708;2022-07-29T12:25:34;6.68;;;4.30;;
11665;SDS011;5889;51.350;6.708;2022-07-29T12:28:03;6.15;;;3.67;;
11665;SDS011;5889;51.350;6.708;2022-07-29T12:33:19;7.70;;;4.18;;
11665;SDS011;5889;51.350;6.708;2022-07-29T12:35:48;8.55;;;3.60;;
11665;SDS011;5889;51.350;6.708;2022-07-29T12:38:17;6.05;;;3.50;;
11665;SDS011;5889;51.350;6.708;2022-07-29T12:40:45;8.52;;;3.67;;
11665;SDS011;5889;51.350;6.708;2022-07-29T12:43:14;6.75;;;2.92;;
11665;SDS011;5889;51.350;6.708;2022-07-29T12:45:42;9.52;;;2.97;;
11665;SDS011;5889;51.350;6.708;2022-07-29T12:48:10;5.38;;;3.08;;
11665;SDS011;5889;51.350;6.708;2022-07-29T12:50:52;5.88;;;2.85;;
11665;SDS011;5889;51.350;6.708;2022-07-29T12:53:21;6.82;;;3.22;;
11665;SDS011;5889;51.350;6.708;2022-07-29T12:55:49;4.97;;;2.70;;
11665;SDS011;5889;51.350;6.708;2022-07-29T12:58:30;7.03;;;3.10;;
11665;SDS011;5889;51.350;6.708;2022-07-29T13:01:03;6.63;;;3.35;;
11665;SDS011;5889;51.350;6.708;2022-07-29T13:03:43;6.95;;;3.10;;
11665;SDS011;5889;51.350;6.708;2022-07-29T13:06:31;5.47;;;2.95;;
11665;SDS011;5889;51.350;6.708;2022-07-29T13:09:04;9.48;;;3.58;;
11665;SDS011;5889;51.350;6.708;2022-07-29T13:11:34;5.25;;;2.53;;
11665;SDS011;5889;51.350;6.708;2022-07-29T13:14:03;7.60;;;3.25;;
11665;SDS011;5889;51.350;6.708;2022-07-29T13:16:30;7.60;;;3.30;;
11665;SDS011;5889;51.350;6.708;2022-07-29T13:19:07;9.20;;;3.33;;
11665;SDS011;5889;51.350;6.708;2022-07-29T13:21:37;7.35;;;3.08;;
11665;SDS011;5889;51.350;6.708;2022-07-29T13:24:05;5.82;;;3.20;;
11665;SDS011;5889;51.350;6.708;2022-07-29T13:26:33;5.80;;;3.10;;
11665;SDS011;5889;51.350;6.708;2022-07-29T13:29:01;7.50;;;2.97;;
11665;SDS011;5889;51.350;6.708;2022-07-29T13:31:28;8.88;;;2.83;;
11665;SDS011;5889;51.350;6.708;2022-07-29T13:33:55;10.00;;;3.72;;
11665;SDS011;5889;51.350;6.708;2022-07-29T13:36:22;5.97;;;2.70;;
11665;SDS011;5889;51.350;6.708;2022-07-29T13:38:50;5.78;;;3.00;;
11665;SDS011;5889;51.350;6.708;2022-07-29T13:41:17;6.63;;;2.55;;
11665;SDS011;5889;51.350;6.708;2022-07-29T13:43:44;6.07;;;3.00;;
11665;SDS011;5889;51.350;6.708;2022-07-29T13:46:11;9.43;;;3.08;;
11665;SDS011;5889;51.350;6.708;2022-07-29T13:48:38;8.40;;;3.05;;
11665;SDS011;5889;51.350;6.708;2022-07-29T13:51:05;7.35;;;2.67;;
11665;SDS011;5889;51.350;6.708;2022-07-29T13:53:32;7.53;;;3.50;;
11665;SDS011;5889;51.350;6.708;2022-07-29T13:56:00;13.73;;;5.68;;
11665;SDS011;5889;51.350;6.708;2022-07-29T13:58:27;20.83;;;7.63;;
11665;SDS011;5889;51.350;6.708;2022-07-29T14:00:54;6.82;;;3.17;;
11665;SDS011;5889;51.350;6.708;2022-07-29T14:03:25;7.78;;;3.15;;
11665;SDS011;5889;51.350;6.708;2022-07-29T14:05:51;9.07;;;2.75;;
11665;SDS011;5889;51.350;6.708;2022-07-29T14:08:18;7.03;;;3.30;;
11665;SDS011;5889;51.350;6.708;2022-07-29T14:10:45;7.00;;;3.10;;
11665;SDS011;5889;51.350;6.708;2022-07-29T14:13:14;7.13;;;2.80;;
11665;SDS011;5889;51.350;6.708;2022-07-29T14:15:41;5.05;;;3.08;;
11665;SDS011;5889;51.350;6.708;2022-07-29T14:18:08;6.72;;;2.92;;
11665;SDS011;5889;51.350;6.708;2022-07-29T14:20:35;4.55;;;2.13;;
11665;SDS011;5889;51.350;6.708;2022-07-29T14:23:02;4.55;;;2.65;;
11665;SDS011;5889;51.350;6.708;2022-07-29T14:25:29;7.70;;;2.63;;
11665;SDS011;5889;51.350;6.708;2022-07-29T14:27:56;6.60;;;2.67;;
11665;SDS011;5889;51.350;6.708;2022-07-29T14:30:24;5.93;;;3.25;;
11665;SDS011;5889;51.350;6.708;2022-07-29T14:32:51;4.78;;;2.97;;
11665;SDS011;5889;51.350;6.708;2022-07-29T14:35:18;4.70;;;3.13;;
11665;SDS011;5889;51.350;6.708;2022-07-29T14:37:45;4.50;;;3.30;;
11665;SDS011;5889;51.350;6.708;2022-07-29T14:40:12;8.60;;;3.33;;
11665;SDS011;5889;51.350;6.708;2022-07-29T14:42:39;9.70;;;3.63;;
11665;SDS011;5889;51.350;6.708;2022-07-29T14:45:07;4.97;;;3.08;;
11665;SDS011;5889;51.350;6.708;2022-07-29T14:47:36;6.63;;;3.05;;
11665;SDS011;5889;51.350;6.708;2022-07-29T14:50:04;6.85;;;2.70;;
11665;SDS011;5889;51.350;6.708;2022-07-29T14:52:32;6.88;;;2.90;;
11665;SDS011;5889;51.350;6.708;2022-07-29T14:54:59;4.43;;;2.50;;
11665;SDS011;5889;51.350;6.708;2022-07-29T14:57:26;8.55;;;2.85;;
11665;SDS011;5889;51.350;6.708;2022-07-29T14:59:53;5.75;;;2.83;;
11665;SDS011;5889;51.350;6.708;2022-07-29T15:02:20;4.20;;;2.30;;
11665;SDS011;5889;51.350;6.708;2022-07-29T15:04:49;3.72;;;2.38;;
11665;SDS011;5889;51.350;6.708;2022-07-29T15:07:16;6.15;;;2.13;;
11665;SDS011;5889;51.350;6.708;2022-07-29T15:09:43;3.28;;;2.00;;
11665;SDS011;5889;51.350;6.708;2022-07-29T15:12:10;4.65;;;2.05;;
11665;SDS011;5889;51.350;6.708;2022-07-29T15:14:37;7.10;;;2.30;;
11665;SDS011;5889;51.350;6.708;2022-07-29T15:17:04;5.80;;;2.78;;
11665;SDS011;5889;51.350;6.708;2022-07-29T15:19:31;6.50;;;2.45;;
11665;SDS011;5889;51.350;6.708;2022-07-29T15:22:00;7.30;;;2.40;;
11665;SDS011;5889;51.350;6.708;2022-07-29T15:24:27;4.55;;;2.30;;